createdAt,value
2022-12-15T00:02:22.643Z,84.00
2022-12-15T00:05:08.407Z,83.49
2022-12-15T00:07:53.717Z,83.99
2022-12-15T00:10:39.173Z,84.41
2022-12-15T00:13:30.132Z,85.36
2022-12-15T00:16:15.950Z,85.64
2022-12-15T00:19:02.652Z,85.72
2022-12-15T00:21:48.194Z,85.58
2022-12-15T00:24:33.420Z,85.74
2022-12-15T00:27:18.939Z,85.67
2022-12-15T00:30:04.181Z,86.42
2022-12-15T00:32:49.632Z,86.39
2022-12-15T00:35:36.159Z,86.57
2022-12-15T00:38:26.079Z,86.95
2022-12-15T00:40:58.841Z,86.80
2022-12-15T00:43:27.027Z,86.80
2022-12-15T00:46:12.448Z,86.63
2022-12-15T00:48:40.565Z,86.90
2022-12-15T00:51:09.054Z,86.42
2022-12-15T00:53:54.948Z,87.22
2022-12-15T00:56:40.147Z,87.17
2022-12-15T00:59:25.613Z,87.16
2022-12-15T01:02:11.234Z,87.03
2022-12-15T01:04:56.566Z,86.43
2022-12-15T01:07:43.332Z,86.87
2022-12-15T01:10:28.556Z,86.26
2022-12-15T01:13:13.963Z,86.19
2022-12-15T01:15:59.604Z,85.81
2022-12-15T01:18:44.904Z,86.00
2022-12-15T01:21:17.496Z,86.46
2022-12-15T01:23:46.588Z,86.42
2022-12-15T01:26:14.194Z,86.42
2022-12-15T01:28:41.964Z,86.42
2022-12-15T01:31:13.227Z,86.64
2022-12-15T01:33:42.616Z,86.92
2022-12-15T01:36:11.012Z,86.81
2022-12-15T01:38:39.183Z,86.45
2022-12-15T01:41:10.986Z,87.15
2022-12-15T01:43:40.953Z,87.28
2022-12-15T01:46:10.209Z,87.70
2022-12-15T01:48:43.916Z,87.93
2022-12-15T01:51:17.277Z,87.91
2022-12-15T01:53:50.185Z,87.48
2022-12-15T01:56:20.729Z,87.48
2022-12-15T01:58:51.308Z,87.39
2022-12-15T02:01:19.272Z,88.03
2022-12-15T02:03:48.982Z,88.17
2022-12-15T02:06:18.000Z,88.25
2022-12-15T02:08:47.485Z,88.05
2022-12-15T02:11:47.870Z,87.66
2022-12-15T02:14:25.643Z,87.84
2022-12-15T02:17:07.650Z,87.86
2022-12-15T02:20:01.096Z,87.90
2022-12-15T02:22:41.790Z,88.63
2022-12-15T02:25:23.484Z,88.67
2022-12-15T02:27:58.031Z,88.71
2022-12-15T02:30:36.688Z,88.90
2022-12-15T02:33:11.339Z,88.80
2022-12-15T02:35:48.879Z,88.42
2022-12-15T02:38:16.677Z,88.13
2022-12-15T02:40:45.835Z,88.34
2022-12-15T02:43:13.692Z,88.59
2022-12-15T02:46:01.333Z,88.39
2022-12-15T02:48:40.198Z,88.83
2022-12-15T02:51:21.627Z,88.45
2022-12-15T02:54:09.140Z,88.12
2022-12-15T02:56:45.827Z,88.07
2022-12-15T02:59:22.071Z,87.69
2022-12-15T03:01:56.595Z,87.61
2022-12-15T03:04:24.577Z,87.71
2022-12-15T03:07:00.834Z,88.06
2022-12-15T03:09:29.381Z,87.92
2022-12-15T03:11:57.270Z,87.90
2022-12-15T03:14:26.076Z,88.77
2022-12-15T03:16:55.997Z,88.74
2022-12-15T03:19:24.335Z,89.02
2022-12-15T03:21:52.102Z,89.74
2022-12-15T03:24:20.391Z,89.53
2022-12-15T03:26:49.955Z,89.38
2022-12-15T03:29:18.292Z,89.43
2022-12-15T03:31:46.573Z,89.77
2022-12-15T03:34:19.289Z,89.75
2022-12-15T03:36:47.169Z,90.31
2022-12-15T03:39:14.969Z,90.47
2022-12-15T03:41:42.811Z,90.64
2022-12-15T03:44:10.552Z,90.39
2022-12-15T03:46:38.418Z,90.06
2022-12-15T03:49:06.538Z,89.54
2022-12-15T03:51:35.620Z,89.61
2022-12-15T03:54:03.247Z,89.53
2022-12-15T03:56:31.112Z,89.50
2022-12-15T03:58:58.828Z,89.64
2022-12-15T04:01:29.644Z,89.15
2022-12-15T04:04:00.929Z,89.23
2022-12-15T04:06:30.209Z,89.27
2022-12-15T04:08:59.561Z,88.73
2022-12-15T04:11:27.470Z,88.89
2022-12-15T04:13:55.280Z,88.81
2022-12-15T04:16:23.141Z,88.89
2022-12-15T04:19:10.972Z,89.36
2022-12-15T04:21:37.695Z,89.25
2022-12-15T04:24:25.004Z,88.93
2022-12-15T04:27:10.456Z,88.72
2022-12-15T04:29:55.758Z,89.40
2022-12-15T04:32:41.684Z,89.49
2022-12-15T04:35:28.148Z,89.83
2022-12-15T04:38:13.961Z,89.65
2022-12-15T04:41:00.944Z,89.21
2022-12-15T04:43:46.471Z,89.45
2022-12-15T04:46:31.886Z,89.21
2022-12-15T04:49:17.320Z,89.09
2022-12-15T04:52:02.671Z,88.69
2022-12-15T04:54:48.164Z,88.17
2022-12-15T04:57:34.895Z,88.55
2022-12-15T05:00:20.230Z,88.72
2022-12-15T05:03:05.521Z,88.82
2022-12-15T05:05:50.807Z,88.54
2022-12-15T05:08:36.320Z,88.71
2022-12-15T05:11:21.774Z,88.57
2022-12-15T05:14:08.351Z,88.63
2022-12-15T05:16:54.452Z,88.66
2022-12-15T05:19:39.488Z,88.41
2022-12-15T05:22:24.787Z,88.38
2022-12-15T05:25:10.163Z,88.14
2022-12-15T05:27:55.535Z,87.94
2022-12-15T05:30:42.186Z,88.60
2022-12-15T05:33:09.956Z,88.39
2022-12-15T05:35:37.696Z,88.41
2022-12-15T05:38:06.574Z,88.30
2022-12-15T05:40:34.423Z,88.65
2022-12-15T05:43:02.330Z,88.30
2022-12-15T05:45:31.436Z,88.88
2022-12-15T05:47:59.231Z,88.45
2022-12-15T05:50:26.962Z,88.76
2022-12-15T05:52:55.625Z,88.32
2022-12-15T05:55:23.483Z,87.57
2022-12-15T05:57:52.617Z,87.58
2022-12-15T06:00:20.854Z,87.68
2022-12-15T06:02:50.374Z,87.81
2022-12-15T06:05:18.341Z,87.89
2022-12-15T06:07:46.107Z,88.02
2022-12-15T06:10:14.038Z,87.69
2022-12-15T06:12:41.784Z,87.84
2022-12-15T06:15:10.351Z,87.54
2022-12-15T06:17:38.503Z,87.80
2022-12-15T06:20:08.797Z,87.76
2022-12-15T06:22:36.769Z,87.23
2022-12-15T06:25:04.911Z,86.98
2022-12-15T06:27:32.707Z,87.31
2022-12-15T06:30:01.310Z,87.24
2022-12-15T06:32:29.106Z,87.30
2022-12-15T06:34:56.941Z,87.03
2022-12-15T06:37:26.049Z,87.20
2022-12-15T06:39:53.630Z,87.55
2022-12-15T06:42:21.800Z,87.13
2022-12-15T06:44:49.997Z,86.84
2022-12-15T06:47:18.364Z,87.10
2022-12-15T06:49:46.129Z,87.67
2022-12-15T06:52:13.960Z,86.85
2022-12-15T06:54:43.433Z,87.27
2022-12-15T06:57:11.160Z,87.04
2022-12-15T06:59:39.169Z,87.53
2022-12-15T07:02:15.677Z,87.41
2022-12-15T07:04:43.620Z,86.75
2022-12-15T07:07:11.560Z,87.30
2022-12-15T07:09:39.282Z,86.63
2022-12-15T07:12:10.067Z,86.57
2022-12-15T07:14:37.796Z,86.68
2022-12-15T07:17:05.563Z,86.69
2022-12-15T07:19:33.289Z,87.05
2022-12-15T07:22:01.458Z,86.88
2022-12-15T07:24:29.259Z,87.16
2022-12-15T07:26:57.185Z,87.02
2022-12-15T07:29:27.232Z,86.70
2022-12-15T07:31:56.003Z,86.70
2022-12-15T07:34:23.952Z,86.27
2022-12-15T07:36:52.663Z,87.05
2022-12-15T07:39:20.656Z,86.46
2022-12-15T07:41:48.451Z,86.34
2022-12-15T07:44:16.336Z,86.71
2022-12-15T07:46:48.944Z,86.61
2022-12-15T07:49:17.460Z,85.83
2022-12-15T07:51:45.876Z,85.13
2022-12-15T07:54:14.304Z,84.86
2022-12-15T07:56:42.430Z,84.93
2022-12-15T07:59:10.422Z,84.84
2022-12-15T08:01:38.331Z,84.99
2022-12-15T08:04:07.624Z,84.53
2022-12-15T08:06:35.228Z,83.94
2022-12-15T08:09:03.214Z,83.93
2022-12-15T08:11:34.418Z,83.70
2022-12-15T08:14:04.150Z,83.87
2022-12-15T08:16:34.524Z,83.59
2022-12-15T08:19:02.788Z,84.10
2022-12-15T08:21:32.285Z,83.96
2022-12-15T08:24:01.877Z,83.50
2022-12-15T08:26:31.064Z,83.38
2022-12-15T08:29:24.443Z,82.96
2022-12-15T08:31:50.713Z,83.12
2022-12-15T08:34:18.573Z,82.81
2022-12-15T08:36:47.693Z,82.71
2022-12-15T08:39:15.203Z,82.89
2022-12-15T08:41:43.298Z,83.05
2022-12-15T08:44:11.354Z,82.56
2022-12-15T08:46:39.890Z,83.10
2022-12-15T08:49:08.707Z,82.79
2022-12-15T08:51:36.645Z,82.86
2022-12-15T08:54:06.128Z,82.75
2022-12-15T08:56:33.967Z,82.27
2022-12-15T08:59:03.167Z,82.35
2022-12-15T09:01:33.356Z,82.02
2022-12-15T09:04:02.118Z,81.87
2022-12-15T09:06:32.090Z,82.39
2022-12-15T09:09:02.404Z,82.65
2022-12-15T09:11:32.324Z,82.29
2022-12-15T09:14:00.208Z,80.98
2022-12-15T09:16:28.573Z,79.71
2022-12-15T09:18:58.003Z,79.04
2022-12-15T09:21:27.523Z,79.00
2022-12-15T09:24:00.191Z,79.70
2022-12-15T09:26:29.056Z,80.17
2022-12-15T09:28:58.709Z,80.42
2022-12-15T09:31:29.298Z,79.68
2022-12-15T09:34:00.744Z,78.43
2022-12-15T09:36:30.158Z,78.73
2022-12-15T09:38:57.932Z,79.35
2022-12-15T09:41:28.228Z,79.69
2022-12-15T09:44:00.090Z,79.88
2022-12-15T09:46:37.107Z,79.90
2022-12-15T09:49:12.436Z,79.92
2022-12-15T09:51:45.721Z,79.73
2022-12-15T09:54:13.607Z,78.92
2022-12-15T09:56:49.689Z,78.25
2022-12-15T09:59:31.964Z,78.29
2022-12-15T10:02:18.704Z,78.24
2022-12-15T10:04:55.669Z,78.06
2022-12-15T10:07:29.816Z,77.90
2022-12-15T10:09:57.872Z,76.61
2022-12-15T10:12:29.760Z,76.85
2022-12-15T10:15:11.554Z,76.48
2022-12-15T10:17:48.518Z,77.12
2022-12-15T10:20:20.493Z,76.91
2022-12-15T10:22:50.297Z,77.40
2022-12-15T10:25:29.351Z,78.12
2022-12-15T10:28:12.370Z,78.57
2022-12-15T10:30:52.075Z,78.02
2022-12-15T10:33:22.104Z,78.44
2022-12-15T10:35:50.168Z,78.55
2022-12-15T10:38:25.808Z,79.36
2022-12-15T10:40:57.134Z,79.71
2022-12-15T10:43:28.054Z,79.16
2022-12-15T10:46:06.698Z,78.39
2022-12-15T10:48:34.550Z,78.01
2022-12-15T10:51:21.877Z,78.46
2022-12-15T10:53:52.635Z,77.95
2022-12-15T10:56:30.612Z,77.85
2022-12-15T10:59:03.549Z,77.36
2022-12-15T11:01:35.666Z,76.79
2022-12-15T11:04:04.073Z,77.25
2022-12-15T11:06:36.780Z,77.10
2022-12-15T11:09:28.133Z,77.74
2022-12-15T11:12:13.748Z,77.30
2022-12-15T11:14:47.491Z,77.18
2022-12-15T11:17:20.153Z,77.03
2022-12-15T11:19:59.835Z,77.38
2022-12-15T11:22:41.485Z,77.14
2022-12-15T11:25:21.950Z,76.65
2022-12-15T11:27:56.981Z,76.49
2022-12-15T11:30:29.440Z,75.85
2022-12-15T11:33:01.393Z,76.33
2022-12-15T11:35:34.693Z,75.65
2022-12-15T11:38:08.089Z,76.04
2022-12-15T11:40:40.067Z,75.69
2022-12-15T11:43:28.191Z,75.66
2022-12-15T11:46:10.585Z,75.66
2022-12-15T11:48:50.260Z,75.28
2022-12-15T11:51:25.979Z,74.88
2022-12-15T11:54:07.666Z,75.18
2022-12-15T11:56:40.447Z,75.26
2022-12-15T11:59:30.562Z,75.63
2022-12-15T12:02:17.012Z,75.76
2022-12-15T12:05:01.622Z,76.15
2022-12-15T12:07:41.956Z,76.75
2022-12-15T12:10:24.200Z,77.46
2022-12-15T12:12:58.535Z,77.89
2022-12-15T12:15:33.310Z,77.91
2022-12-15T12:18:08.860Z,78.22
2022-12-15T12:20:44.780Z,78.49
2022-12-15T12:23:18.747Z,78.35
2022-12-15T12:26:02.580Z,78.58
2022-12-15T12:28:36.933Z,78.56
2022-12-15T12:31:06.595Z,78.69
2022-12-15T12:33:40.050Z,78.40
2022-12-15T12:36:12.378Z,78.04
2022-12-15T12:38:46.270Z,78.39
2022-12-15T12:41:26.574Z,77.98
2022-12-15T12:43:58.122Z,78.06
2022-12-15T12:46:31.447Z,77.67
2022-12-15T12:49:06.719Z,77.65
2022-12-15T12:51:38.064Z,78.10
2022-12-15T12:54:41.058Z,77.93
2022-12-15T12:57:37.438Z,77.96
2022-12-15T13:00:17.789Z,77.90
2022-12-15T13:03:05.832Z,77.93
2022-12-15T13:05:35.507Z,77.65
2022-12-15T13:08:27.067Z,77.66
2022-12-15T13:10:56.530Z,77.80
2022-12-15T13:13:48.508Z,77.41
2022-12-15T13:16:23.937Z,77.22
2022-12-15T13:19:02.030Z,77.48
2022-12-15T13:21:54.039Z,77.68
2022-12-15T13:24:32.697Z,77.64
2022-12-15T13:27:15.293Z,77.42
2022-12-15T13:30:00.453Z,77.78
2022-12-15T13:32:34.853Z,77.47
2022-12-15T13:35:22.337Z,77.81
2022-12-15T13:37:53.240Z,77.65
2022-12-15T13:40:50.977Z,77.67
2022-12-15T13:43:42.547Z,78.25
2022-12-15T13:46:17.754Z,78.31
2022-12-15T13:48:49.278Z,78.37
2022-12-15T13:51:28.113Z,78.25
2022-12-15T13:54:00.373Z,78.57
2022-12-15T13:56:44.741Z,78.70
2022-12-15T13:59:26.837Z,78.91
2022-12-15T14:01:55.557Z,79.11
2022-12-15T14:04:23.559Z,79.21
2022-12-15T14:06:55.445Z,79.29
2022-12-15T14:09:28.368Z,79.47
2022-12-15T14:11:59.160Z,80.01
2022-12-15T14:14:30.372Z,80.11
2022-12-15T14:17:02.124Z,80.76
2022-12-15T14:19:39.124Z,80.75
2022-12-15T14:22:27.036Z,80.77
2022-12-15T14:25:00.240Z,80.64
2022-12-15T14:27:31.247Z,80.55
2022-12-15T14:30:14.219Z,80.90
2022-12-15T14:32:43.743Z,81.36
2022-12-15T14:35:14.674Z,81.83
2022-12-15T14:37:44.105Z,82.27
2022-12-15T14:40:17.649Z,81.67
2022-12-15T14:42:50.573Z,82.00
2022-12-15T14:45:21.162Z,82.97
2022-12-15T14:50:48.824Z,83.11
2022-12-15T14:53:20.954Z,83.03
2022-12-15T14:55:48.766Z,83.33
2022-12-15T14:58:33.565Z,83.42
2022-12-15T15:01:07.177Z,83.78
2022-12-15T15:03:39.484Z,83.90
2022-12-15T15:06:17.840Z,84.30
2022-12-15T15:08:48.947Z,83.68
2022-12-15T15:11:29.272Z,83.67
2022-12-15T15:14:04.206Z,83.82
2022-12-15T15:16:32.416Z,84.40
2022-12-15T15:19:04.336Z,83.82
2022-12-15T15:21:36.640Z,83.81
2022-12-15T15:24:19.617Z,84.09
2022-12-15T15:26:47.630Z,84.51
2022-12-15T15:32:16.521Z,84.26
2022-12-15T15:34:44.859Z,85.05
2022-12-15T15:37:18.488Z,84.55
2022-12-15T15:39:48.488Z,84.45
2022-12-15T15:42:16.388Z,84.19
2022-12-15T15:44:44.424Z,84.87
2022-12-15T15:47:22.856Z,84.91
2022-12-15T15:49:51.577Z,85.19
2022-12-15T15:52:19.850Z,85.16
2022-12-15T15:54:48.392Z,85.03
2022-12-15T15:57:17.383Z,85.30
2022-12-15T15:59:48.985Z,85.32
2022-12-15T16:02:18.834Z,86.03
2022-12-15T16:04:46.982Z,86.39
2022-12-15T16:07:21.335Z,86.10
2022-12-15T16:09:49.457Z,85.90
2022-12-15T16:12:27.576Z,85.84
2022-12-15T16:14:55.880Z,86.50
2022-12-15T16:17:25.507Z,85.95
2022-12-15T16:19:53.310Z,86.13
2022-12-15T16:22:22.999Z,86.83
2022-12-15T16:24:50.837Z,86.91
2022-12-15T16:27:18.728Z,86.76
2022-12-15T16:29:46.610Z,86.41
2022-12-15T16:32:14.459Z,86.66
2022-12-15T16:34:44.078Z,86.58
2022-12-15T16:37:25.021Z,86.31
2022-12-15T16:39:52.949Z,86.80
2022-12-15T16:42:20.753Z,87.03
2022-12-15T16:44:48.541Z,87.05
2022-12-15T16:47:16.324Z,86.94
2022-12-15T16:49:45.881Z,87.23
2022-12-15T16:52:20.715Z,87.77
2022-12-15T16:54:51.105Z,87.26
2022-12-15T16:57:19.532Z,87.03
2022-12-15T16:59:47.290Z,87.39
2022-12-15T17:02:28.389Z,87.42
2022-12-15T17:04:57.806Z,87.07
2022-12-15T17:07:27.526Z,87.24
2022-12-15T17:09:55.539Z,86.56
2022-12-15T17:12:23.325Z,86.65
2022-12-15T17:14:51.089Z,86.66
2022-12-15T17:17:21.175Z,86.87
2022-12-15T17:22:40.136Z,86.53
2022-12-15T17:25:23.699Z,87.05
2022-12-15T17:28:13.922Z,86.83
2022-12-15T17:30:43.002Z,86.61
2022-12-15T17:33:19.095Z,86.34
2022-12-15T17:35:48.112Z,86.49
2022-12-15T17:38:18.944Z,85.93
2022-12-15T17:40:47.816Z,86.47
2022-12-15T17:43:18.507Z,86.63
2022-12-15T17:45:50.721Z,86.62
2022-12-15T17:48:23.676Z,86.59
2022-12-15T17:50:54.190Z,86.78
2022-12-15T17:53:27.737Z,87.21
2022-12-15T17:55:59.063Z,87.06
2022-12-15T17:58:31.293Z,86.88
2022-12-15T18:01:03.090Z,87.07
2022-12-15T18:03:35.577Z,86.41
2022-12-15T18:06:09.954Z,86.90
2022-12-15T18:08:47.644Z,87.30
2022-12-15T18:11:20.515Z,86.79
2022-12-15T18:13:54.800Z,86.87
2022-12-15T18:16:26.477Z,86.64
2022-12-15T18:18:57.976Z,87.66
2022-12-15T18:21:34.066Z,87.63
2022-12-15T18:24:18.654Z,87.83
2022-12-15T18:27:01.255Z,88.53
2022-12-15T18:29:34.123Z,87.73
2022-12-15T18:32:09.547Z,88.14
2022-12-15T18:34:37.576Z,88.42
2022-12-15T18:37:16.940Z,87.93
2022-12-15T18:39:48.501Z,88.33
2022-12-15T18:42:18.055Z,87.96
2022-12-15T18:44:48.214Z,88.75
2022-12-15T18:47:17.742Z,88.44
2022-12-15T18:49:45.776Z,92.16
2022-12-15T18:52:18.582Z,91.42
2022-12-15T18:54:48.552Z,89.15
2022-12-15T18:57:27.565Z,89.14
2022-12-15T18:59:58.338Z,88.04
2022-12-15T19:02:26.253Z,87.85
2022-12-15T19:04:54.205Z,87.24
2022-12-15T19:07:21.974Z,86.14
2022-12-15T19:09:51.272Z,84.68
2022-12-15T19:12:18.902Z,85.60
2022-12-15T19:14:47.473Z,86.53
2022-12-15T19:17:34.728Z,86.92
2022-12-15T19:20:23.976Z,87.39
2022-12-15T19:22:53.345Z,87.30
2022-12-15T19:25:26.790Z,87.66
2022-12-15T19:27:59.296Z,87.35
2022-12-15T19:30:28.835Z,88.21
2022-12-15T19:32:56.664Z,87.90
2022-12-15T19:35:25.051Z,88.11
2022-12-15T19:37:55.158Z,88.48
2022-12-15T19:40:28.346Z,88.11
2022-12-15T19:42:56.275Z,88.37
2022-12-15T19:45:27.065Z,88.93
2022-12-15T19:47:55.087Z,88.79
2022-12-15T19:50:24.534Z,88.41
2022-12-15T19:52:55.597Z,88.40
2022-12-15T19:55:28.884Z,88.68
2022-12-15T19:57:56.696Z,88.29
2022-12-15T20:00:27.613Z,87.94
2022-12-15T20:02:56.679Z,88.11
2022-12-15T20:05:25.063Z,88.15
2022-12-15T20:07:54.625Z,88.12
2022-12-15T20:10:31.825Z,88.61
2022-12-15T20:13:01.261Z,88.39
2022-12-15T20:15:29.094Z,88.81
2022-12-15T20:18:00.092Z,88.48
2022-12-15T20:20:29.863Z,88.73
2022-12-15T20:23:02.343Z,88.57
2022-12-15T20:25:35.630Z,88.59
2022-12-15T20:28:04.341Z,88.24
2022-12-15T20:30:35.863Z,88.18
2022-12-15T20:33:05.183Z,87.85
2022-12-15T20:35:37.374Z,88.37
2022-12-15T20:38:18.137Z,88.55
2022-12-15T20:40:47.329Z,88.66
2022-12-15T20:43:15.926Z,87.99
2022-12-15T20:45:44.060Z,88.65
2022-12-15T20:48:14.483Z,88.31
2022-12-15T20:50:44.192Z,88.52
2022-12-15T20:53:18.109Z,88.69
2022-12-15T20:55:48.273Z,88.04
2022-12-15T20:58:16.631Z,88.14
2022-12-15T21:00:44.613Z,88.46
2022-12-15T21:03:20.749Z,88.55
2022-12-15T21:05:49.474Z,88.43
2022-12-15T21:08:19.522Z,88.19
2022-12-15T21:10:48.699Z,88.31
2022-12-15T21:13:19.469Z,87.94
2022-12-15T21:15:47.820Z,88.22
2022-12-15T21:21:12.201Z,88.62
2022-12-15T21:23:42.906Z,87.77
2022-12-15T21:26:12.315Z,87.92
2022-12-15T21:28:39.859Z,88.60
2022-12-15T21:31:07.747Z,88.42
2022-12-15T21:33:35.699Z,88.54
2022-12-15T21:36:03.721Z,88.75
2022-12-15T21:38:35.577Z,88.48
2022-12-15T21:41:07.174Z,88.60
2022-12-15T21:43:37.122Z,88.46
2022-12-15T21:46:14.375Z,88.45
2022-12-15T21:48:59.899Z,88.05
2022-12-15T21:51:29.693Z,87.88
2022-12-15T21:53:57.422Z,87.75
2022-12-15T21:56:25.165Z,87.96
2022-12-15T22:01:42.836Z,87.95
2022-12-15T22:04:18.124Z,88.13
2022-12-15T22:06:50.501Z,88.30
2022-12-15T22:09:19.021Z,88.28
2022-12-15T22:11:49.579Z,88.44
2022-12-15T22:14:25.834Z,88.08
2022-12-15T22:16:53.700Z,88.04
2022-12-15T22:19:23.200Z,87.24
2022-12-15T22:21:51.998Z,86.87
2022-12-15T22:24:20.991Z,85.65
2022-12-15T22:26:49.201Z,86.41
2022-12-15T22:29:21.564Z,85.72
2022-12-15T22:31:50.644Z,86.30
2022-12-15T22:34:22.213Z,85.61
2022-12-15T22:36:50.921Z,86.15
2022-12-15T22:39:20.454Z,85.65
2022-12-15T22:41:50.102Z,85.72
2022-12-15T22:44:22.248Z,85.65
2022-12-15T22:46:51.704Z,85.53
2022-12-15T22:49:21.379Z,85.29
2022-12-15T22:51:49.209Z,86.06
2022-12-15T22:54:20.237Z,85.29
2022-12-15T22:56:50.612Z,85.46
2022-12-15T22:59:25.937Z,85.52
2022-12-15T23:01:53.787Z,85.24
2022-12-15T23:04:22.821Z,85.06
2022-12-15T23:06:50.771Z,85.25
2022-12-15T23:09:19.631Z,85.56
2022-12-15T23:11:46.424Z,85.80
2022-12-15T23:14:16.809Z,85.59
2022-12-15T23:16:46.413Z,85.21
2022-12-15T23:19:23.935Z,85.22
2022-12-15T23:21:51.965Z,84.86
2022-12-15T23:24:19.791Z,84.85
2022-12-15T23:26:47.541Z,85.17
2022-12-15T23:29:15.349Z,84.73
2022-12-15T23:31:43.204Z,84.71
2022-12-15T23:34:12.612Z,85.04
2022-12-15T23:36:40.463Z,85.05
2022-12-15T23:39:08.233Z,85.02
2022-12-15T23:41:36.707Z,84.81
2022-12-15T23:44:05.622Z,84.63
2022-12-15T23:46:33.991Z,85.00
2022-12-15T23:49:01.825Z,84.62
2022-12-15T23:51:30.941Z,84.86
2022-12-15T23:53:58.478Z,85.36
2022-12-15T23:56:27.193Z,85.39
2022-12-15T23:58:56.926Z,85.50
